Time;durP1;ratioP1;P1;durP2;ratioP2;P2;SDS_P1;SDS_P2;PMS_P1;PMS_P2;Temp;Humidity;BMP_temperature;BMP_pressure;BME280_temperature;BME280_humidity;BME280_pressure;Samples;Min_cycle;Max_cycle;Signal;HPM_P1;HPM_P2
2022/06/09 00:00:20;;;;;;;2.47;1.20;;;14.70;99.90;;;;;;5012672;28;20045;-71
2022/06/09 00:02:57;;;;;;;1.83;1.10;;;14.70;99.90;;;;;;5029211;28;20120;-71
2022/06/09 00:05:31;;;;;;;2.03;1.02;;;14.60;99.90;;;;;;5029482;28;20405;-71
2022/06/09 00:08:06;;;;;;;4.72;1.33;;;14.60;99.90;;;;;;4995463;28;20069;-71
2022/06/09 00:10:45;;;;;;;2.42;1.13;;;14.60;99.90;;;;;;5028895;28;20045;-71
2022/06/09 00:13:17;;;;;;;2.55;1.27;;;14.50;99.90;;;;;;5029738;28;20055;-71
2022/06/09 00:15:49;;;;;;;1.70;1.13;;;14.60;99.90;;;;;;5012368;28;20144;-71
2022/06/09 00:18:16;;;;;;;3.50;1.38;;;14.60;99.90;;;;;;5014102;28;20037;-71
2022/06/09 00:20:48;;;;;;;1.63;1.40;;;14.50;99.90;;;;;;5012994;28;20041;-70
2022/06/09 00:23:16;;;;;;;2.53;1.35;;;14.50;99.90;;;;;;5031375;28;20386;-71
2022/06/09 00:25:49;;;;;;;2.10;1.23;;;14.50;99.90;;;;;;5031546;28;20128;-71
2022/06/09 00:28:21;;;;;;;1.55;1.20;;;14.50;99.90;;;;;;4998340;28;20540;-72
2022/06/09 00:30:53;;;;;;;3.03;1.25;;;14.40;99.90;;;;;;5012706;28;20417;-72
2022/06/09 00:33:20;;;;;;;2.85;1.23;;;14.40;99.90;;;;;;5013629;28;20042;-71
2022/06/09 00:35:51;;;;;;;1.73;0.88;;;14.30;99.90;;;;;;5016169;28;20052;-71
2022/06/09 00:38:23;;;;;;;3.30;1.30;;;14.30;99.90;;;;;;5035512;28;20052;-71
2022/06/09 00:40:50;;;;;;;3.70;1.25;;;14.30;99.90;;;;;;5033968;28;20034;-71
2022/06/09 00:43:22;;;;;;;1.38;1.08;;;14.30;99.90;;;;;;5014044;28;20042;-71
2022/06/09 00:46:10;;;;;;;1.73;1.08;;;14.20;99.90;;;;;;5022321;28;20051;-70
2022/06/09 00:48:57;;;;;;;1.35;1.23;;;14.20;99.90;;;;;;5015442;28;20040;-71
2022/06/09 00:51:42;;;;;;;3.70;1.20;;;14.20;99.90;;;;;;5032109;28;20038;-71
2022/06/09 00:54:22;;;;;;;2.05;1.20;;;14.20;99.90;;;;;;5034074;28;20038;-72
2022/06/09 00:57:03;;;;;;;1.75;1.20;;;14.20;99.90;;;;;;5034930;28;20038;-71
2022/06/09 00:59:36;;;;;;;3.33;1.25;;;14.10;99.90;;;;;;5016133;28;20045;-72
2022/06/09 01:02:10;;;;;;;1.67;1.40;;;14.10;99.90;;;;;;5034600;28;20040;-71
2022/06/09 01:04:42;;;;;;;4.45;1.30;;;14.10;99.90;;;;;;5034044;28;20046;-71
2022/06/09 01:07:16;;;;;;;4.65;1.60;;;14.00;99.90;;;;;;5016585;28;20056;-72
2022/06/09 01:09:44;;;;;;;1.63;1.40;;;14.00;99.90;;;;;;4999091;28;20052;-74
2022/06/09 01:12:37;;;;;;;3.83;1.30;;;14.00;99.90;;;;;;5030435;28;20068;-70
2022/06/09 01:15:22;;;;;;;2.42;1.40;;;14.00;99.90;;;;;;5034010;28;20049;-70
2022/06/09 01:18:07;;;;;;;1.90;1.40;;;13.90;99.90;;;;;;5034150;28;20112;-70
2022/06/09 01:20:48;;;;;;;2.85;1.60;;;13.90;99.90;;;;;;5032859;28;20034;-70
2022/06/09 01:23:35;;;;;;;3.70;1.27;;;13.90;99.90;;;;;;5016044;28;20057;-70
2022/06/09 01:26:19;;;;;;;4.07;1.30;;;13.80;99.90;;;;;;5033989;28;20069;-71
2022/06/09 01:29:06;;;;;;;2.17;1.25;;;13.80;99.90;;;;;;5029923;28;20073;-70
2022/06/09 01:32:03;;;;;;;3.83;1.52;;;13.80;99.90;;;;;;5015357;28;20053;-70
2022/06/09 01:35:01;;;;;;;2.83;1.35;;;13.80;99.90;;;;;;4997228;28;20074;-71
2022/06/09 01:37:38;;;;;;;2.58;1.52;;;13.80;99.90;;;;;;5008754;28;20398;-70
2022/06/09 01:40:08;;;;;;;2.75;1.45;;;13.80;99.90;;;;;;5015418;28;20049;-71
2022/06/09 01:42:43;;;;;;;4.30;1.30;;;13.80;99.90;;;;;;5016042;28;20081;-71
2022/06/09 01:45:22;;;;;;;2.42;1.10;;;13.70;99.90;;;;;;5016537;28;20072;-71
2022/06/09 01:48:04;;;;;;;1.90;1.17;;;13.80;99.90;;;;;;4996568;28;20371;-71
2022/06/09 01:50:53;;;;;;;4.75;1.55;;;13.80;99.90;;;;;;5028589;28;20055;-71
2022/06/09 01:53:43;;;;;;;1.80;1.25;;;13.80;99.90;;;;;;5021451;28;20046;-71
2022/06/09 01:56:21;;;;;;;2.33;1.50;;;13.80;99.90;;;;;;5033003;28;20029;-70
2022/06/09 01:59:01;;;;;;;1.50;1.30;;;13.80;99.90;;;;;;5022716;28;20045;-71
2022/06/09 02:01:35;;;;;;;3.00;1.00;;;13.80;99.90;;;;;;5032548;28;20041;-71
2022/06/09 02:04:13;;;;;;;2.45;1.20;;;13.80;99.90;;;;;;5033140;28;20041;-71
2022/06/09 02:06:47;;;;;;;2.65;1.20;;;13.90;99.90;;;;;;5031167;28;20088;-71
2022/06/09 02:09:19;;;;;;;5.25;1.30;;;13.80;99.90;;;;;;5032149;28;20045;-71
2022/06/09 02:11:56;;;;;;;2.60;1.30;;;13.90;99.90;;;;;;5033146;28;20458;-70
2022/06/09 02:14:30;;;;;;;1.65;1.02;;;13.90;99.90;;;;;;4999589;28;20079;-70
2022/06/09 02:17:05;;;;;;;2.88;1.17;;;13.90;99.90;;;;;;5032992;28;20033;-72
2022/06/09 02:19:39;;;;;;;3.45;1.10;;;13.90;99.90;;;;;;5014457;28;20731;-71
2022/06/09 02:22:12;;;;;;;1.67;1.20;;;13.90;99.90;;;;;;5011898;28;20046;-70
2022/06/09 02:24:44;;;;;;;1.08;0.77;;;13.90;99.90;;;;;;5013186;28;20049;-72
2022/06/09 02:27:16;;;;;;;1.52;1.00;;;13.90;99.90;;;;;;5012091;28;20056;-70
2022/06/09 02:29:48;;;;;;;1.58;1.00;;;13.90;99.90;;;;;;5021157;28;21299;-71
2022/06/09 02:32:20;;;;;;;1.65;1.10;;;13.90;99.90;;;;;;5032803;28;20064;-70
2022/06/09 02:34:51;;;;;;;1.48;0.90;;;13.90;99.90;;;;;;5014499;28;20045;-70
2022/06/09 02:37:23;;;;;;;2.30;1.00;;;13.90;99.90;;;;;;5032337;28;20041;-71
2022/06/09 02:39:55;;;;;;;2.00;1.20;;;13.80;99.90;;;;;;4998748;28;20045;-70
2022/06/09 02:42:27;;;;;;;2.33;1.10;;;13.80;99.90;;;;;;5011517;28;20418;-70
2022/06/09 02:44:53;;;;;;;1.00;0.90;;;13.80;99.90;;;;;;5020572;28;20060;-72
2022/06/09 02:47:25;;;;;;;2.22;1.15;;;13.70;99.90;;;;;;5032662;28;20056;-70
2022/06/09 02:49:57;;;;;;;1.40;1.13;;;13.70;99.90;;;;;;5031942;28;20048;-70
2022/06/09 02:52:24;;;;;;;2.28;1.20;;;13.70;99.90;;;;;;5032438;28;20614;-70
2022/06/09 02:54:50;;;;;;;1.95;1.00;;;13.70;99.90;;;;;;5031535;28;20041;-70
2022/06/09 02:57:23;;;;;;;1.10;0.90;;;13.70;99.90;;;;;;5013990;28;20052;-71
2022/06/09 02:59:56;;;;;;;2.25;0.90;;;13.70;99.90;;;;;;5031735;28;20045;-70
2022/06/09 03:02:27;;;;;;;3.70;1.25;;;13.70;99.90;;;;;;5015474;28;20033;-71
2022/06/09 03:04:59;;;;;;;1.48;1.13;;;13.70;99.90;;;;;;5032076;28;20080;-71
2022/06/09 03:07:31;;;;;;;1.17;1.08;;;13.80;99.90;;;;;;4979457;28;20060;-72
2022/06/09 03:10:03;;;;;;;1.52;0.80;;;13.80;99.90;;;;;;5010362;28;20041;-70
2022/06/09 03:12:35;;;;;;;1.38;0.80;;;13.90;99.90;;;;;;5032091;28;20076;-70
2022/06/09 03:15:08;;;;;;;4.47;1.40;;;13.80;99.90;;;;;;5015163;28;20053;-70
2022/06/09 03:17:39;;;;;;;2.80;0.80;;;13.80;99.90;;;;;;5014609;28;20052;-71
2022/06/09 03:20:17;;;;;;;2.70;1.05;;;13.80;99.90;;;;;;5031588;28;20496;-70
2022/06/09 03:22:49;;;;;;;2.30;1.00;;;13.80;99.90;;;;;;5021693;28;20047;-70
2022/06/09 03:25:21;;;;;;;5.45;0.80;;;13.80;99.90;;;;;;5015850;28;20128;-70
2022/06/09 03:27:53;;;;;;;4.00;0.75;;;13.80;99.90;;;;;;5032231;28;20042;-71
2022/06/09 03:30:25;;;;;;;1.08;0.90;;;13.80;99.90;;;;;;5031082;28;20041;-71
2022/06/09 03:32:57;;;;;;;1.80;1.25;;;13.80;99.90;;;;;;5012140;28;20046;-70
2022/06/09 03:35:29;;;;;;;1.77;0.88;;;13.80;99.90;;;;;;5026325;28;20052;-71
2022/06/09 03:38:01;;;;;;;3.05;0.82;;;13.80;99.90;;;;;;5015452;28;20513;-72
2022/06/09 03:40:32;;;;;;;1.63;0.93;;;13.70;99.90;;;;;;5031351;28;20038;-71
2022/06/09 03:43:04;;;;;;;1.92;0.80;;;13.70;99.90;;;;;;5030674;28;20034;-71
2022/06/09 03:45:36;;;;;;;1.02;0.75;;;13.70;99.90;;;;;;5014542;28;20041;-71
2022/06/09 03:48:08;;;;;;;1.25;0.85;;;13.70;99.90;;;;;;4998815;28;20068;-71
2022/06/09 03:50:39;;;;;;;3.92;1.00;;;13.70;99.90;;;;;;5031180;28;20049;-70
2022/06/09 03:53:11;;;;;;;1.83;0.98;;;13.70;99.90;;;;;;5031117;28;20048;-71
2022/06/09 03:55:43;;;;;;;1.73;0.80;;;13.60;99.90;;;;;;5029500;28;20052;-70
2022/06/09 03:58:14;;;;;;;2.08;1.20;;;13.60;99.90;;;;;;5031154;28;20034;-71
2022/06/09 04:00:46;;;;;;;1.50;1.00;;;13.60;99.90;;;;;;5016987;28;20501;-72
2022/06/09 04:03:18;;;;;;;1.60;1.00;;;13.60;99.90;;;;;;5028741;28;20044;-71
2022/06/09 04:05:45;;;;;;;5.32;1.05;;;13.60;99.90;;;;;;5013979;28;20393;-71
2022/06/09 04:08:16;;;;;;;2.20;1.27;;;13.60;99.90;;;;;;5014916;28;20050;-70
2022/06/09 04:10:48;;;;;;;4.28;1.48;;;13.60;99.90;;;;;;4996211;28;20136;-71
2022/06/09 04:13:21;;;;;;;2.15;1.38;;;13.60;99.90;;;;;;5014096;28;20159;-70
2022/06/09 04:15:53;;;;;;;3.25;2.25;;;13.60;99.90;;;;;;5036017;28;20436;-71
2022/06/09 04:18:24;;;;;;;2.00;1.25;;;13.70;99.90;;;;;;5035544;28;20037;-71
2022/06/09 04:20:57;;;;;;;3.50;2.55;;;13.70;99.90;;;;;;5034274;28;20037;-71
2022/06/09 04:23:29;;;;;;;3.78;1.50;;;13.70;99.90;;;;;;5034862;28;20121;-71
2022/06/09 04:26:00;;;;;;;1.70;1.55;;;13.80;99.90;;;;;;5035350;28;20034;-72
2022/06/09 04:28:32;;;;;;;5.45;2.33;;;13.80;99.90;;;;;;5032417;28;20041;-72
2022/06/09 04:31:04;;;;;;;3.40;1.77;;;13.80;99.90;;;;;;5032063;28;20038;-71
2022/06/09 04:33:36;;;;;;;2.78;2.20;;;13.80;99.90;;;;;;5014362;28;20052;-71
2022/06/09 04:36:09;;;;;;;4.10;1.88;;;13.80;99.90;;;;;;4999617;28;20059;-71
2022/06/09 04:38:41;;;;;;;3.13;2.08;;;13.80;99.90;;;;;;5032412;28;20051;-71
2022/06/09 04:41:14;;;;;;;3.58;1.48;;;13.80;99.90;;;;;;5014316;28;20041;-71
2022/06/09 04:43:44;;;;;;;2.38;1.50;;;13.80;99.90;;;;;;5032281;28;20049;-71
2022/06/09 04:46:14;;;;;;;4.45;1.35;;;13.80;99.90;;;;;;5013994;28;20319;-70
2022/06/09 04:48:46;;;;;;;4.60;1.60;;;13.80;99.90;;;;;;5031660;28;20509;-70
2022/06/09 04:51:19;;;;;;;2.65;1.40;;;13.80;99.90;;;;;;5031976;28;20069;-71
2022/06/09 04:53:51;;;;;;;2.58;1.50;;;13.80;99.90;;;;;;4999237;28;20049;-71
2022/06/09 04:56:23;;;;;;;2.05;1.10;;;13.90;99.90;;;;;;5033174;28;20046;-71
2022/06/09 04:58:55;;;;;;;1.63;1.10;;;13.90;99.90;;;;;;5015492;28;20045;-70
2022/06/09 05:01:30;;;;;;;1.45;1.00;;;13.90;99.90;;;;;;5014128;28;20029;-74
2022/06/09 05:04:02;;;;;;;2.08;1.23;;;13.90;99.90;;;;;;4998793;28;20408;-71
2022/06/09 05:06:34;;;;;;;3.58;1.15;;;14.00;99.90;;;;;;5018252;28;20045;-70
2022/06/09 05:09:06;;;;;;;2.13;1.17;;;14.00;99.90;;;;;;5031184;28;20052;-74
2022/06/09 05:11:32;;;;;;;2.67;1.00;;;13.90;99.90;;;;;;5000724;28;20528;-72
2022/06/09 05:14:04;;;;;;;2.15;1.05;;;13.90;99.90;;;;;;5017667;28;20536;-71
2022/06/09 05:16:37;;;;;;;1.58;1.20;;;13.90;99.90;;;;;;5021265;28;20514;-70
2022/06/09 05:19:09;;;;;;;2.50;1.20;;;13.90;99.90;;;;;;5034299;28;20079;-72
2022/06/09 05:21:41;;;;;;;2.33;1.00;;;13.90;99.90;;;;;;5032930;28;20065;-70
2022/06/09 05:24:12;;;;;;;1.83;0.90;;;13.90;99.90;;;;;;5012912;28;20041;-71
2022/06/09 05:26:44;;;;;;;1.02;0.93;;;14.00;99.90;;;;;;4996794;28;20041;-71
2022/06/09 05:29:16;;;;;;;1.38;0.80;;;14.10;99.90;;;;;;5021901;28;20037;-71
2022/06/09 05:31:48;;;;;;;3.30;0.80;;;14.10;99.90;;;;;;5032275;28;20064;-71
2022/06/09 05:34:20;;;;;;;1.52;0.75;;;14.10;99.90;;;;;;5021244;22;20041;-87
2022/06/09 05:36:52;;;;;;;1.50;0.80;;;14.10;99.90;;;;;;5026397;28;20048;-88
2022/06/09 05:45:06;;;;;;;1.42;0.90;;;13.90;99.90;;;;;;5016897;28;20042;-89
2022/06/09 05:47:38;;;;;;;1.65;0.90;;;13.90;99.90;;;;;;5020572;28;20055;-88
2022/06/09 05:50:06;;;;;;;0.88;0.75;;;13.90;99.90;;;;;;5020214;28;20038;-88
2022/06/09 05:52:38;;;;;;;5.43;1.15;;;13.80;99.90;;;;;;5033783;28;20052;-87
2022/06/09 05:55:10;;;;;;;2.25;1.05;;;13.80;99.90;;;;;;5022569;28;20045;-88
2022/06/09 05:57:42;;;;;;;2.20;1.05;;;13.80;99.90;;;;;;5011460;28;20059;-88
2022/06/09 06:00:09;;;;;;;2.30;1.02;;;13.80;99.90;;;;;;5014089;28;20064;-88
2022/06/09 06:02:42;;;;;;;2.38;1.00;;;13.70;99.90;;;;;;5033566;28;20409;-88
2022/06/09 06:07:59;;;;;;;3.67;1.77;;;13.70;99.90;;;;;;5037679;28;20041;-88
2022/06/09 06:10:25;;;;;;;2.15;1.30;;;13.70;99.90;;;;;;5032215;28;20045;-88
2022/06/09 06:12:57;;;;;;;3.78;2.05;;;13.70;99.90;;;;;;5031599;28;20051;-89
2022/06/09 06:15:29;;;;;;;2.38;1.45;;;13.60;99.90;;;;;;5004653;28;20042;-88
2022/06/09 06:18:02;;;;;;;3.67;1.50;;;13.50;99.90;;;;;;5035960;28;20037;-87
2022/06/09 06:20:35;;;;;;;4.63;1.70;;;13.50;99.90;;;;;;4983798;28;20416;-88
2022/06/09 06:23:07;;;;;;;3.17;1.60;;;13.40;99.90;;;;;;5019565;28;20051;-87
2022/06/09 06:25:38;;;;;;;3.20;1.80;;;13.40;99.90;;;;;;5005000;28;20051;-87
2022/06/09 06:28:06;;;;;;;3.03;1.60;;;13.40;99.90;;;;;;5026478;28;20139;-87
2022/06/09 06:30:37;;;;;;;3.33;1.63;;;13.40;99.90;;;;;;5036884;28;20045;-88
2022/06/09 06:33:04;;;;;;;5.43;1.83;;;13.40;99.90;;;;;;5016143;28;20077;-88
2022/06/09 06:35:36;;;;;;;2.63;1.80;;;13.40;99.90;;;;;;5032090;28;20053;-87
2022/06/09 06:38:03;;;;;;;4.32;1.95;;;13.40;99.90;;;;;;5049677;28;20042;-88
2022/06/09 06:40:29;;;;;;;2.10;1.63;;;13.40;99.90;;;;;;5054329;28;20051;-87
2022/06/09 06:42:56;;;;;;;2.22;1.67;;;13.50;99.90;;;;;;5039730;28;20038;-88
2022/06/09 06:45:23;;;;;;;2.47;1.60;;;13.60;99.90;;;;;;5041444;28;20044;-88
2022/06/09 06:47:56;;;;;;;4.40;1.95;;;13.60;99.90;;;;;;5044488;28;20045;-88
2022/06/09 06:50:28;;;;;;;2.63;1.83;;;13.70;99.90;;;;;;5039716;28;20057;-87
2022/06/09 06:53:00;;;;;;;4.35;2.67;;;13.70;99.90;;;;;;5036449;28;20324;-88
2022/06/09 06:55:31;;;;;;;6.47;3.08;;;13.70;99.90;;;;;;5019480;28;20052;-88
2022/06/09 06:57:58;;;;;;;3.90;2.20;;;13.80;99.90;;;;;;5019845;28;20041;-88
2022/06/09 07:00:25;;;;;;;2.67;2.03;;;13.90;99.90;;;;;;5037418;28;20505;-87
2022/06/09 07:02:53;;;;;;;3.88;2.00;;;14.00;99.90;;;;;;5037655;28;20047;-88
2022/06/09 07:05:21;;;;;;;5.93;2.88;;;14.00;99.90;;;;;;5021811;28;20041;-86
2022/06/09 07:07:48;;;;;;;2.33;1.70;;;14.10;99.90;;;;;;5047573;28;21290;-87
2022/06/09 07:10:20;;;;;;;1.90;1.55;;;14.20;99.90;;;;;;5039574;28;20060;-88
2022/06/09 07:12:52;;;;;;;2.30;1.80;;;14.30;99.90;;;;;;5039455;28;20045;-88
2022/06/09 07:15:19;;;;;;;2.85;2.25;;;14.40;99.90;;;;;;5022024;28;20052;-88
2022/06/09 07:17:50;;;;;;;1.75;1.63;;;14.50;99.90;;;;;;5047178;28;20037;-87
2022/06/09 07:20:18;;;;;;;2.25;1.90;;;14.60;99.90;;;;;;5038844;28;20465;-87
2022/06/09 07:22:49;;;;;;;3.88;1.90;;;14.70;99.90;;;;;;5024708;28;20080;-86
2022/06/09 07:25:24;;;;;;;5.25;1.80;;;14.90;99.90;;;;;;5048591;28;20037;-86
2022/06/09 07:27:53;;;;;;;4.28;1.90;;;14.90;99.90;;;;;;5034679;28;20041;-86
2022/06/09 07:30:22;;;;;;;5.47;1.70;;;15.00;99.90;;;;;;5036425;28;20109;-86
2022/06/09 07:32:49;;;;;;;3.35;2.00;;;15.00;99.90;;;;;;5041859;28;20044;-86
2022/06/09 07:35:24;;;;;;;3.67;1.70;;;15.10;99.90;;;;;;5031855;28;20117;-87
2022/06/09 07:37:51;;;;;;;2.88;1.50;;;15.20;99.90;;;;;;5017503;28;20037;-88
2022/06/09 07:40:19;;;;;;;2.75;1.33;;;15.20;99.90;;;;;;5035843;28;20137;-89
2022/06/09 07:42:51;;;;;;;6.05;1.50;;;15.30;99.90;;;;;;5035474;28;20038;-88
2022/06/09 07:45:23;;;;;;;5.88;2.20;;;15.30;99.90;;;;;;5037648;28;20041;-88
2022/06/09 07:47:50;;;;;;;2.10;1.33;;;15.40;99.90;;;;;;5035315;28;20136;-87
2022/06/09 07:50:22;;;;;;;3.50;1.80;;;15.50;99.90;;;;;;5032232;28;20057;-86
2022/06/09 07:52:53;;;;;;;3.45;1.60;;;15.50;99.90;;;;;;5048403;28;20052;-88
2022/06/09 07:55:25;;;;;;;2.33;1.58;;;15.50;99.90;;;;;;5037070;28;20046;-88
2022/06/09 07:57:53;;;;;;;4.97;1.40;;;15.50;99.90;;;;;;5047323;28;20049;-86
2022/06/09 08:00:26;;;;;;;2.83;1.30;;;15.20;99.90;;;;;;5053598;28;20037;-86
2022/06/09 08:02:54;;;;;;;4.30;1.00;;;14.80;99.90;;;;;;5028068;28;20137;-86
2022/06/09 08:05:27;;;;;;;3.25;1.00;;;14.30;99.90;;;;;;5034787;28;20099;-86
2022/06/09 08:07:54;;;;;;;1.83;1.30;;;14.00;99.90;;;;;;5032460;28;20109;-87
2022/06/09 08:10:24;;;;;;;2.90;1.60;;;14.00;99.90;;;;;;5052626;28;20140;-86
2022/06/09 08:12:55;;;;;;;4.10;1.40;;;14.00;99.90;;;;;;5052496;28;20058;-86
2022/06/09 08:15:27;;;;;;;6.30;2.42;;;14.10;99.90;;;;;;5037607;28;20496;-86
2022/06/09 08:17:59;;;;;;;2.90;1.30;;;13.90;99.90;;;;;;5038768;28;20489;-86
2022/06/09 08:20:34;;;;;;;4.22;1.73;;;14.00;99.90;;;;;;5035926;28;20051;-87
2022/06/09 08:23:21;;;;;;;3.97;1.50;;;14.10;99.90;;;;;;5035165;28;20033;-87
2022/06/09 08:25:56;;;;;;;3.78;1.58;;;14.20;99.90;;;;;;5036788;28;20064;-86
2022/06/09 08:28:28;;;;;;;4.40;2.08;;;14.40;99.90;;;;;;5038621;28;20047;-86
2022/06/09 08:30:55;;;;;;;3.15;1.40;;;14.40;99.90;;;;;;5038974;28;20045;-87
2022/06/09 08:33:27;;;;;;;2.63;1.67;;;14.50;99.90;;;;;;5040597;28;20042;-86
2022/06/09 08:35:59;;;;;;;2.30;1.50;;;14.70;99.90;;;;;;5037002;28;20052;-86
2022/06/09 08:38:26;;;;;;;3.15;1.40;;;14.80;99.90;;;;;;5028303;28;20738;-87
2022/06/09 08:41:18;;;;;;;2.03;1.30;;;14.90;99.90;;;;;;5033102;28;20051;-87
2022/06/09 08:44:27;;;;;;;2.75;1.25;;;15.10;99.90;;;;;;5036734;28;20046;-87
2022/06/09 08:47:17;;;;;;;3.50;1.98;;;15.20;99.90;;;;;;5021192;28;20048;-87
2022/06/09 08:49:50;;;;;;;2.55;1.13;;;15.20;99.90;;;;;;5038450;28;20058;-87
2022/06/09 08:52:51;;;;;;;2.47;1.10;;;15.40;99.90;;;;;;5031487;28;20149;-86
2022/06/09 08:55:31;;;;;;;6.68;1.40;;;15.60;99.90;;;;;;5036301;28;20149;-87
2022/06/09 08:58:05;;;;;;;3.67;1.02;;;15.60;99.90;;;;;;5034103;28;20075;-86
2022/06/09 09:00:38;;;;;;;2.35;1.17;;;15.60;99.90;;;;;;5043232;28;20037;-87
2022/06/09 09:03:37;;;;;;;1.58;1.00;;;15.70;99.90;;;;;;5058301;28;20041;-87
2022/06/09 09:06:09;;;;;;;2.47;1.23;;;15.70;99.90;;;;;;5017637;28;20047;-87
2022/06/09 09:08:37;;;;;;;3.38;1.50;;;15.80;99.90;;;;;;5043195;28;20482;-87
2022/06/09 09:11:39;;;;;;;4.32;1.15;;;15.90;99.90;;;;;;5039739;28;20586;-87
2022/06/09 09:14:19;;;;;;;6.43;2.58;;;16.00;99.90;;;;;;5039119;28;20071;-87
2022/06/09 09:17:25;;;;;;;3.65;1.45;;;16.20;99.90;;;;;;5040568;28;20053;-85
2022/06/09 09:20:01;;;;;;;2.92;1.77;;;16.40;99.90;;;;;;5016033;28;20136;-87
2022/06/09 09:22:58;;;;;;;2.67;1.23;;;16.50;99.90;;;;;;5037000;28;20057;-87
2022/06/09 09:25:59;;;;;;;5.35;1.23;;;16.60;99.90;;;;;;5039704;28;20057;-87
2022/06/09 09:28:32;;;;;;;1.98;1.05;;;16.60;99.90;;;;;;5024594;28;20112;-87
2022/06/09 09:31:06;;;;;;;4.05;1.38;;;16.50;99.90;;;;;;5041892;28;20050;-87
2022/06/09 09:33:38;;;;;;;1.20;0.90;;;16.50;99.90;;;;;;5041409;28;20049;-87
2022/06/09 09:36:20;;;;;;;4.70;1.17;;;16.30;99.90;;;;;;5023666;28;20105;-86
2022/06/09 09:38:53;;;;;;;3.15;1.40;;;16.20;99.90;;;;;;5029523;28;20117;-87
2022/06/09 09:41:31;;;;;;;3.28;1.60;;;16.10;99.90;;;;;;5017344;28;20042;-87
2022/06/09 09:44:26;;;;;;;4.53;1.40;;;16.10;99.90;;;;;;5045080;28;20042;-87
2022/06/09 09:47:00;;;;;;;3.70;1.55;;;16.00;99.90;;;;;;5025197;28;20052;-87
2022/06/09 09:49:42;;;;;;;4.32;2.28;;;16.10;99.90;;;;;;5031206;28;20504;-86
2022/06/09 09:52:34;;;;;;;4.75;1.45;;;16.20;99.90;;;;;;5049433;28;20081;-86
2022/06/09 09:55:29;;;;;;;3.15;1.33;;;16.40;99.90;;;;;;5054804;28;20507;-87
2022/06/09 09:58:34;;;;;;;3.22;1.27;;;16.70;99.90;;;;;;5017585;28;20060;-87
2022/06/09 10:01:28;;;;;;;4.68;1.95;;;16.70;99.90;;;;;;5033879;28;20041;-87
2022/06/09 10:10:34;;;;;;;1.83;0.80;;;16.80;99.90;;;;;;5039675;28;20289;-86
2022/06/09 10:13:32;;;;;;;4.88;1.33;;;16.80;99.90;;;;;;5056725;28;20064;-86
2022/06/09 10:16:14;;;;;;;4.00;1.83;;;16.80;99.90;;;;;;5039977;28;20045;-87
2022/06/09 10:19:05;;;;;;;2.38;0.90;;;16.90;99.90;;;;;;5053650;28;20030;-86
2022/06/09 10:21:56;;;;;;;3.40;1.08;;;16.90;99.90;;;;;;5049832;28;20034;-86
2022/06/09 10:24:50;;;;;;;2.15;1.00;;;17.20;99.90;;;;;;5045895;28;20041;-86
2022/06/09 10:27:21;;;;;;;9.50;1.33;;;17.30;99.90;;;;;;5015385;28;20046;-87
2022/06/09 10:30:00;;;;;;;1.65;1.00;;;17.40;99.90;;;;;;5030089;28;20503;-86
2022/06/09 10:33:01;;;;;;;2.20;1.00;;;17.40;99.90;;;;;;5037062;28;20087;-87
2022/06/09 10:35:58;;;;;;;4.43;1.30;;;17.50;99.90;;;;;;5038042;28;20080;-87
2022/06/09 10:38:38;;;;;;;1.38;0.80;;;17.50;99.90;;;;;;5031822;28;20045;-86
2022/06/09 10:41:13;;;;;;;2.53;1.38;;;17.60;99.90;;;;;;5031653;28;20045;-87
2022/06/09 10:43:49;;;;;;;1.52;0.98;;;17.70;99.90;;;;;;5021205;28;20503;-86
2022/06/09 10:46:42;;;;;;;3.05;0.80;;;17.80;99.90;;;;;;5022020;28;20479;-86
2022/06/09 10:55:26;;;;;;;3.35;1.52;;;17.70;99.90;;;;;;5039200;28;20052;-86
2022/06/09 10:58:03;;;;;;;3.88;1.00;;;17.50;99.90;;;;;;5035078;28;20055;-87
2022/06/09 11:00:36;;;;;;;3.43;1.00;;;17.50;99.90;;;;;;5039951;28;20041;-87
2022/06/09 11:03:12;;;;;;;2.80;1.00;;;17.30;99.90;;;;;;5031721;28;20041;-86
2022/06/09 11:06:00;;;;;;;2.72;1.38;;;17.10;99.90;;;;;;5043359;28;20081;-87
2022/06/09 11:09:10;;;;;;;3.13;1.30;;;17.00;99.90;;;;;;5035761;28;20052;-86
2022/06/09 11:11:44;;;;;;;2.72;0.80;;;16.90;99.90;;;;;;5056660;28;20068;-86
2022/06/09 11:14:33;;;;;;;1.45;0.60;;;16.80;99.90;;;;;;5009886;28;20052;-87
2022/06/09 11:17:29;;;;;;;3.65;1.00;;;16.90;99.90;;;;;;5038547;28;20476;-86
2022/06/09 11:20:38;;;;;;;2.20;0.90;;;17.00;99.90;;;;;;5034549;28;20050;-85
2022/06/09 11:23:36;;;;;;;2.00;0.57;;;17.30;99.90;;;;;;5053549;28;20065;-86
2022/06/09 11:26:26;;;;;;;5.68;0.82;;;17.40;99.90;;;;;;5034189;28;20121;-87
2022/06/09 11:29:11;;;;;;;2.90;0.90;;;17.60;99.90;;;;;;5020847;28;20058;-87
2022/06/09 11:31:44;;;;;;;4.40;1.05;;;17.70;99.90;;;;;;5025956;28;20045;-86
2022/06/09 11:34:52;;;;;;;2.65;1.02;;;17.70;99.90;;;;;;5026552;28;20128;-86
2022/06/09 11:37:46;;;;;;;1.65;0.90;;;17.80;99.90;;;;;;4943916;28;20057;-84
2022/06/09 11:40:16;;;;;;;;;;;17.90;99.90;;;;;;4969556;28;20042;-88
2022/06/09 11:43:15;;;;;;;4.65;1.13;;;18.00;99.90;;;;;;5018362;28;19929;-85
2022/06/09 11:45:55;;;;;;;3.88;1.05;;;18.00;99.90;;;;;;5053837;28;20101;-86
2022/06/09 11:48:36;;;;;;;3.10;1.02;;;17.90;99.90;;;;;;5018901;28;20041;-87
2022/06/09 11:51:04;;;;;;;3.40;1.08;;;17.80;99.90;;;;;;5024121;28;20579;-87
2022/06/09 11:53:37;;;;;;;1.50;0.90;;;17.70;99.90;;;;;;5007214;28;20053;-87
2022/06/09 11:56:33;;;;;;;4.78;1.00;;;17.60;99.90;;;;;;5035249;28;20045;-87
2022/06/09 11:59:15;;;;;;;2.92;1.08;;;17.50;99.90;;;;;;5025622;28;20734;-88
2022/06/09 12:02:21;;;;;;;3.80;0.90;;;17.50;99.90;;;;;;5040394;28;20041;-87
2022/06/09 12:05:17;;;;;;;3.00;0.98;;;17.40;99.90;;;;;;5022190;28;20052;-88
2022/06/09 12:08:12;;;;;;;4.40;1.08;;;17.40;99.90;;;;;;5037450;28;20140;-87
2022/06/09 12:11:05;;;;;;;3.22;1.48;;;17.50;99.90;;;;;;5032729;28;20046;-86
2022/06/09 12:13:47;;;;;;;2.95;1.00;;;17.60;99.90;;;;;;5054542;28;20106;-86
2022/06/09 12:16:32;;;;;;;4.95;1.67;;;17.60;99.90;;;;;;5052899;28;20045;-84
2022/06/09 12:19:14;;;;;;;3.03;1.40;;;17.50;99.90;;;;;;5043134;28;20037;-87
2022/06/09 12:21:44;;;;;;;4.85;1.50;;;17.40;99.90;;;;;;5036565;28;20055;-87
2022/06/09 12:24:14;;;;;;;2.67;1.45;;;17.50;99.90;;;;;;5023214;28;20548;-88
2022/06/09 12:26:42;;;;;;;3.08;1.25;;;17.50;99.90;;;;;;5038127;28;20041;-86
2022/06/09 12:29:40;;;;;;;2.00;0.90;;;17.50;99.90;;;;;;5036596;28;20132;-87
2022/06/09 12:32:10;;;;;;;3.40;1.40;;;17.50;99.90;;;;;;5040815;28;20045;-87
2022/06/09 12:34:51;;;;;;;3.60;1.00;;;17.50;99.90;;;;;;5032075;28;20164;-87
2022/06/09 12:37:29;;;;;;;2.20;1.00;;;17.60;99.90;;;;;;5038366;28;20037;-86
2022/06/09 12:40:02;;;;;;;4.57;1.35;;;17.60;99.90;;;;;;5048182;28;20056;-86
2022/06/09 12:42:36;;;;;;;3.85;1.77;;;17.60;99.90;;;;;;5029751;28;20081;-86
2022/06/09 12:45:22;;;;;;;3.95;1.00;;;17.50;99.90;;;;;;5039302;28;20065;-86
2022/06/09 12:48:02;;;;;;;3.50;1.20;;;17.50;99.90;;;;;;5040139;28;20037;-86
2022/06/09 12:50:50;;;;;;;3.03;1.30;;;17.50;99.90;;;;;;5022204;28;20058;-86
2022/06/09 12:53:26;;;;;;;4.20;1.00;;;17.80;99.90;;;;;;5027585;28;20049;-86
2022/06/09 12:56:00;;;;;;;4.68;1.40;;;18.10;99.90;;;;;;5051320;28;20135;-88
2022/06/09 12:58:50;;;;;;;4.15;1.02;;;18.40;99.90;;;;;;5014768;28;20119;-86
2022/06/09 13:01:24;;;;;;;4.18;1.10;;;18.70;99.90;;;;;;5024113;28;20057;-85
2022/06/09 13:03:58;;;;;;;3.55;0.90;;;18.90;99.90;;;;;;5038148;28;20068;-87
2022/06/09 13:06:35;;;;;;;1.63;1.15;;;19.00;99.90;;;;;;5055593;28;20045;-86
2022/06/09 13:09:33;;;;;;;2.47;0.90;;;19.10;99.90;;;;;;5036254;28;20057;-86
2022/06/09 13:15:04;;;;;;;2.85;1.00;;;19.50;99.90;;;;;;5042827;28;20612;-86
2022/06/09 13:17:39;;;;;;;1.85;0.57;;;19.50;99.90;;;;;;5054322;28;20448;-86
2022/06/09 13:20:17;;;;;;;2.90;0.90;;;19.30;99.90;;;;;;5035088;28;20505;-86
2022/06/09 13:22:49;;;;;;;0.95;0.60;;;19.40;99.90;;;;;;5037768;28;20060;-85
2022/06/09 13:25:23;;;;;;;2.75;0.82;;;19.60;99.90;;;;;;5022877;28;20397;-87
2022/06/09 13:27:56;;;;;;;2.45;0.80;;;19.70;99.90;;;;;;5010427;28;20048;-86
2022/06/09 13:30:41;;;;;;;2.80;0.88;;;19.70;99.90;;;;;;5039146;28;20080;-86
2022/06/09 13:33:30;;;;;;;2.42;0.93;;;19.60;99.90;;;;;;5040494;28;20075;-86
2022/06/09 13:36:08;;;;;;;;;;;19.40;99.90;;;;;;5054761;28;20077;-86
2022/06/09 13:38:39;;;;;;;2.25;1.17;;;19.30;99.90;;;;;;5037346;28;19967;-86
2022/06/09 13:41:33;;;;;;;2.30;0.80;;;19.10;99.90;;;;;;5031256;28;20246;-87
2022/06/09 13:44:14;;;;;;;5.32;1.00;;;19.00;99.90;;;;;;5042580;28;20043;-86
2022/06/09 13:47:17;;;;;;;2.35;0.95;;;18.80;99.90;;;;;;5039638;28;20045;-85
2022/06/09 13:49:46;;;;;;;1.33;0.80;;;18.70;99.90;;;;;;5022328;28;20076;-86
2022/06/09 13:52:35;;;;;;;2.65;0.85;;;18.50;99.90;;;;;;5038683;28;20045;-86
2022/06/09 13:55:10;;;;;;;1.38;0.70;;;18.60;99.90;;;;;;5044361;28;20049;-86
2022/06/09 13:57:45;;;;;;;2.22;0.77;;;18.70;99.90;;;;;;5020604;28;20076;-88
2022/06/09 14:00:27;;;;;;;5.32;1.20;;;18.90;99.90;;;;;;5033413;28;20124;-87